Ford, WA

7:42 PM PDT on September 14, 2014 (GMT -0700)
Four Mound Prairie | Change Station
CLOSE
Current Station
Personal Weather Station
Location: Reardan, WA
Elevation: 2452 ft
Nearby Weather Stations

Elev 2452 ft 47.78 °N, 117.73 °W | Updated 2 seconds ago

Clear
Clear
60.6 °F
Feels Like 60.6 °F
N
0.0
Wind Variable Wind from North
Gusts 0.0 mph

Today
High -- | Low -- °F
--% Chance of Precip.
Yesterday
High -- | Low -- °F
Precip. -- in
6:27 AM 7:05 PM
Waning Gibbous, 60% visible
Pressure 29.98 in
Visibility 10.0 miles
Clouds Clear
Dew Point 27 °F
Humidity 28%
Rainfall 0.00 in
Snow Depth 0 in , 0 in , 0 in
UV 0 out of 12
Pollen 6.50 out of 12
PM2.5 Good
Flu Activity Not available.
METAR KSKA 150158Z AUTO 09002KT 10SM CLR 21/M01 A2998 RMK AO2 SLP150 T02141009

More Conditions Fewer Conditions

Pressure 29.98 in
Visibility 10.0 miles
Clouds Clear
Dew Point 27 °F
Humidity 28%
Rainfall 0.00 in
Snow Depth 0 in , 0 in , 0 in
UV 0 out of 12
Pollen 6.50 out of 12
PM2.5 Good
Flu Activity Not available.
METAR KSKA 150158Z AUTO 09002KT 10SM CLR 21/M01 A2998 RMK AO2 SLP150 T02141009

More Conditions Fewer Conditions

10-Day Weather Forecast

Almanac

Astronomy

Sep. 14, 2014 Rise Set
Actual Time 6:27 AM PDT 7:05 PM PDT
Civil Twilight 5:55 AM PDT 7:36 PM PDT
Nautical Twilight 5:18 AM PDT 8:13 PM PDT
Astronomical Twilight 4:39 AM PDT 8:51 PM PDT
Moon 10:36 PM PDT (9/14) 1:02 PM PDT (9/14)
Length of Visible Light 13h 40m
Length of Day
12h 38m
Tomorrow will be 3m 25s shorter.
Waning Gibbous, 60% of the Moon is Illuminated
Today
Waning Gibbous
Sep 15
Last Quarter
Sep 24
New
Oct 1
First Quarter
Oct 8
Full

Today's Extremes

State Highs State Lows

Community

WunderPhotos

Upload Photos

1,753,385 photos uploaded!

Nearby

Air Quality

  Air Quality AQ Index Pollutant
Yesterday Good
OZONE
Yesterday Good
PM10
Current Good
PM2.5
Sunday Good
PM10
Sunday Good
OZONE
Monday Good
PM10
Monday Good
OZONE

Snow Depth

Station Depth Elevation
Stevens Pass 0 in 4070 ft
Fish Lake 0 in 3371 ft
Potato Hill 0 in 4500 ft
Swift Creek 0 in 3770 ft
Surprise Lakes 1 in 4250 ft

Earthquake Activity

City Distance Mag. Time & Date
No recent earthquake activity has been reported nearby.
Minimum magnitude displayed is 2.5.

Coastal Water Temperatures

Place Temperature
No Stations Reporting

Nearby Weather Stations